sensor_id;sensor_type;location;lat;lon;timestamp;P1;durP1;ratioP1;P2;durP2;ratioP2
4921;SDS011;16625;53.624;10.106;2023-12-14T00:00:55;2.77;;;2.30;;
4921;SDS011;16625;53.624;10.106;2023-12-14T00:03:22;6.87;;;2.50;;
4921;SDS011;16625;53.624;10.106;2023-12-14T00:05:49;3.30;;;2.53;;
4921;SDS011;16625;53.624;10.106;2023-12-14T00:08:19;4.13;;;2.77;;
4921;SDS011;16625;53.624;10.106;2023-12-14T00:10:46;3.83;;;3.13;;
4921;SDS011;16625;53.624;10.106;2023-12-14T00:13:15;2.57;;;2.37;;
4921;SDS011;16625;53.624;10.106;2023-12-14T00:15:42;3.03;;;2.60;;
4921;SDS011;16625;53.624;10.106;2023-12-14T00:18:09;3.93;;;2.87;;
4921;SDS011;16625;53.624;10.106;2023-12-14T00:20:36;8.53;;;3.30;;
4921;SDS011;16625;53.624;10.106;2023-12-14T00:23:03;11.07;;;2.60;;
4921;SDS011;16625;53.624;10.106;2023-12-14T00:25:32;3.70;;;2.87;;
4921;SDS011;16625;53.624;10.106;2023-12-14T00:28:00;6.07;;;2.97;;
4921;SDS011;16625;53.624;10.106;2023-12-14T00:30:27;5.67;;;3.13;;
4921;SDS011;16625;53.624;10.106;2023-12-14T00:32:54;3.43;;;2.60;;
4921;SDS011;16625;53.624;10.106;2023-12-14T00:35:21;5.27;;;2.63;;
4921;SDS011;16625;53.624;10.106;2023-12-14T00:37:48;5.57;;;2.90;;
4921;SDS011;16625;53.624;10.106;2023-12-14T00:40:13;6.20;;;2.90;;
4921;SDS011;16625;53.624;10.106;2023-12-14T00:42:43;5.20;;;3.13;;
4921;SDS011;16625;53.624;10.106;2023-12-14T00:45:10;4.90;;;2.93;;
4921;SDS011;16625;53.624;10.106;2023-12-14T00:47:37;7.73;;;3.00;;
4921;SDS011;16625;53.624;10.106;2023-12-14T00:50:05;7.17;;;2.90;;
4921;SDS011;16625;53.624;10.106;2023-12-14T00:52:33;4.87;;;2.30;;
4921;SDS011;16625;53.624;10.106;2023-12-14T00:55:00;3.60;;;2.27;;
4921;SDS011;16625;53.624;10.106;2023-12-14T00:57:27;4.80;;;2.70;;
4921;SDS011;16625;53.624;10.106;2023-12-14T00:59:55;3.10;;;2.57;;
4921;SDS011;16625;53.624;10.106;2023-12-14T01:02:22;3.70;;;2.07;;
4921;SDS011;16625;53.624;10.106;2023-12-14T01:04:49;9.00;;;2.43;;
4921;SDS011;16625;53.624;10.106;2023-12-14T01:07:15;3.90;;;2.83;;
4921;SDS011;16625;53.624;10.106;2023-12-14T01:09:42;5.13;;;2.53;;
4921;SDS011;16625;53.624;10.106;2023-12-14T01:12:09;4.47;;;2.27;;
4921;SDS011;16625;53.624;10.106;2023-12-14T01:14:36;3.63;;;2.60;;
4921;SDS011;16625;53.624;10.106;2023-12-14T01:17:05;5.57;;;2.57;;
4921;SDS011;16625;53.624;10.106;2023-12-14T01:19:31;4.53;;;2.80;;
4921;SDS011;16625;53.624;10.106;2023-12-14T01:21:58;4.70;;;2.87;;
4921;SDS011;16625;53.624;10.106;2023-12-14T01:24:25;5.83;;;3.07;;
4921;SDS011;16625;53.624;10.106;2023-12-14T01:26:52;4.20;;;2.60;;
4921;SDS011;16625;53.624;10.106;2023-12-14T01:29:19;6.90;;;2.57;;
4921;SDS011;16625;53.624;10.106;2023-12-14T01:31:44;4.30;;;3.10;;
4921;SDS011;16625;53.624;10.106;2023-12-14T01:34:13;4.63;;;2.50;;
4921;SDS011;16625;53.624;10.106;2023-12-14T01:36:40;4.10;;;3.10;;
4921;SDS011;16625;53.624;10.106;2023-12-14T01:39:07;6.63;;;3.30;;
4921;SDS011;16625;53.624;10.106;2023-12-14T01:41:34;6.80;;;2.63;;
4921;SDS011;16625;53.624;10.106;2023-12-14T01:44:01;4.23;;;2.97;;
4921;SDS011;16625;53.624;10.106;2023-12-14T01:46:28;6.53;;;2.83;;
4921;SDS011;16625;53.624;10.106;2023-12-14T01:48:55;3.60;;;2.50;;
4921;SDS011;16625;53.624;10.106;2023-12-14T01:51:23;2.10;;;1.80;;
4921;SDS011;16625;53.624;10.106;2023-12-14T01:53:51;3.10;;;2.23;;
4921;SDS011;16625;53.624;10.106;2023-12-14T01:56:18;2.33;;;2.13;;
4921;SDS011;16625;53.624;10.106;2023-12-14T01:58:44;3.73;;;2.80;;
4921;SDS011;16625;53.624;10.106;2023-12-14T02:01:14;3.20;;;2.60;;
4921;SDS011;16625;53.624;10.106;2023-12-14T02:03:44;3.80;;;2.77;;
4921;SDS011;16625;53.624;10.106;2023-12-14T02:06:11;6.63;;;2.50;;
4921;SDS011;16625;53.624;10.106;2023-12-14T02:08:40;3.60;;;2.90;;
4921;SDS011;16625;53.624;10.106;2023-12-14T02:11:07;3.47;;;1.80;;
4921;SDS011;16625;53.624;10.106;2023-12-14T02:13:33;3.10;;;2.47;;
4921;SDS011;16625;53.624;10.106;2023-12-14T02:16:00;4.30;;;2.40;;
4921;SDS011;16625;53.624;10.106;2023-12-14T02:18:27;3.50;;;2.47;;
4921;SDS011;16625;53.624;10.106;2023-12-14T02:20:54;7.67;;;3.00;;
4921;SDS011;16625;53.624;10.106;2023-12-14T02:23:22;3.50;;;2.57;;
4921;SDS011;16625;53.624;10.106;2023-12-14T02:25:49;3.73;;;2.17;;
4921;SDS011;16625;53.624;10.106;2023-12-14T02:28:16;7.70;;;2.30;;
4921;SDS011;16625;53.624;10.106;2023-12-14T02:30:43;5.23;;;2.80;;
4921;SDS011;16625;53.624;10.106;2023-12-14T02:33:10;4.30;;;2.53;;
4921;SDS011;16625;53.624;10.106;2023-12-14T02:35:37;5.73;;;2.27;;
4921;SDS011;16625;53.624;10.106;2023-12-14T02:38:04;7.60;;;2.97;;
4921;SDS011;16625;53.624;10.106;2023-12-14T02:40:32;3.83;;;2.73;;
4921;SDS011;16625;53.624;10.106;2023-12-14T02:42:59;3.87;;;2.50;;
4921;SDS011;16625;53.624;10.106;2023-12-14T02:45:26;4.57;;;2.80;;
4921;SDS011;16625;53.624;10.106;2023-12-14T02:47:53;4.63;;;2.50;;
4921;SDS011;16625;53.624;10.106;2023-12-14T02:50:20;3.30;;;2.00;;
4921;SDS011;16625;53.624;10.106;2023-12-14T02:52:47;3.33;;;2.60;;
4921;SDS011;16625;53.624;10.106;2023-12-14T02:55:14;3.57;;;2.50;;
4921;SDS011;16625;53.624;10.106;2023-12-14T02:57:42;5.90;;;3.30;;
4921;SDS011;16625;53.624;10.106;2023-12-14T03:00:10;3.57;;;2.33;;
4921;SDS011;16625;53.624;10.106;2023-12-14T03:02:38;3.47;;;2.20;;
4921;SDS011;16625;53.624;10.106;2023-12-14T03:05:05;4.23;;;2.53;;
4921;SDS011;16625;53.624;10.106;2023-12-14T03:07:32;4.93;;;2.30;;
4921;SDS011;16625;53.624;10.106;2023-12-14T03:09:59;4.20;;;2.50;;
4921;SDS011;16625;53.624;10.106;2023-12-14T03:12:26;9.67;;;3.20;;
4921;SDS011;16625;53.624;10.106;2023-12-14T03:14:54;3.03;;;2.30;;
4921;SDS011;16625;53.624;10.106;2023-12-14T03:17:21;3.77;;;2.80;;
4921;SDS011;16625;53.624;10.106;2023-12-14T03:19:48;13.13;;;3.20;;
4921;SDS011;16625;53.624;10.106;2023-12-14T03:22:15;4.47;;;2.70;;
4921;SDS011;16625;53.624;10.106;2023-12-14T03:24:42;6.57;;;3.23;;
4921;SDS011;16625;53.624;10.106;2023-12-14T03:27:09;6.40;;;2.87;;
4921;SDS011;16625;53.624;10.106;2023-12-14T03:29:36;9.43;;;2.33;;
4921;SDS011;16625;53.624;10.106;2023-12-14T03:32:05;7.50;;;3.30;;
4921;SDS011;16625;53.624;10.106;2023-12-14T03:34:32;2.70;;;2.10;;
4921;SDS011;16625;53.624;10.106;2023-12-14T03:36:59;3.33;;;2.57;;
4921;SDS011;16625;53.624;10.106;2023-12-14T03:39:26;3.37;;;2.37;;
4921;SDS011;16625;53.624;10.106;2023-12-14T03:41:53;4.20;;;2.53;;
4921;SDS011;16625;53.624;10.106;2023-12-14T03:44:20;7.80;;;2.33;;
4921;SDS011;16625;53.624;10.106;2023-12-14T03:46:49;4.63;;;2.50;;
4921;SDS011;16625;53.624;10.106;2023-12-14T03:49:17;3.73;;;3.13;;
4921;SDS011;16625;53.624;10.106;2023-12-14T03:51:44;3.50;;;2.90;;
4921;SDS011;16625;53.624;10.106;2023-12-14T03:54:11;5.20;;;2.50;;
4921;SDS011;16625;53.624;10.106;2023-12-14T03:56:38;5.03;;;2.83;;
4921;SDS011;16625;53.624;10.106;2023-12-14T03:59:04;5.77;;;3.20;;
4921;SDS011;16625;53.624;10.106;2023-12-14T04:01:32;7.27;;;3.00;;
4921;SDS011;16625;53.624;10.106;2023-12-14T04:04:01;3.70;;;2.43;;
4921;SDS011;16625;53.624;10.106;2023-12-14T04:06:30;2.97;;;2.67;;
4921;SDS011;16625;53.624;10.106;2023-12-14T04:08:57;5.80;;;2.43;;
4921;SDS011;16625;53.624;10.106;2023-12-14T04:11:24;2.90;;;2.60;;
4921;SDS011;16625;53.624;10.106;2023-12-14T04:13:51;7.30;;;3.47;;
4921;SDS011;16625;53.624;10.106;2023-12-14T04:16:19;3.70;;;2.30;;
4921;SDS011;16625;53.624;10.106;2023-12-14T04:18:46;10.90;;;3.13;;
4921;SDS011;16625;53.624;10.106;2023-12-14T04:21:13;3.40;;;2.60;;
4921;SDS011;16625;53.624;10.106;2023-12-14T04:23:41;4.90;;;2.50;;
4921;SDS011;16625;53.624;10.106;2023-12-14T04:26:08;3.83;;;2.70;;
4921;SDS011;16625;53.624;10.106;2023-12-14T04:28:36;5.47;;;2.60;;
4921;SDS011;16625;53.624;10.106;2023-12-14T04:31:03;7.67;;;4.07;;
4921;SDS011;16625;53.624;10.106;2023-12-14T04:33:30;6.50;;;3.03;;
4921;SDS011;16625;53.624;10.106;2023-12-14T04:35:58;2.97;;;2.67;;
4921;SDS011;16625;53.624;10.106;2023-12-14T04:38:23;7.07;;;3.20;;
4921;SDS011;16625;53.624;10.106;2023-12-14T04:40:52;3.23;;;2.37;;
4921;SDS011;16625;53.624;10.106;2023-12-14T04:43:19;4.93;;;3.50;;
4921;SDS011;16625;53.624;10.106;2023-12-14T04:45:46;5.70;;;3.10;;
4921;SDS011;16625;53.624;10.106;2023-12-14T04:48:13;5.40;;;3.67;;
4921;SDS011;16625;53.624;10.106;2023-12-14T04:50:41;2.93;;;2.20;;
4921;SDS011;16625;53.624;10.106;2023-12-14T04:53:08;3.37;;;2.80;;
4921;SDS011;16625;53.624;10.106;2023-12-14T04:55:35;5.53;;;3.10;;
4921;SDS011;16625;53.624;10.106;2023-12-14T04:58:03;5.77;;;3.30;;
4921;SDS011;16625;53.624;10.106;2023-12-14T05:00:30;3.23;;;2.93;;
4921;SDS011;16625;53.624;10.106;2023-12-14T05:02:57;7.63;;;3.07;;
4921;SDS011;16625;53.624;10.106;2023-12-14T05:05:24;8.20;;;3.10;;
4921;SDS011;16625;53.624;10.106;2023-12-14T05:07:51;4.77;;;2.70;;
4921;SDS011;16625;53.624;10.106;2023-12-14T05:10:18;5.60;;;4.03;;
4921;SDS011;16625;53.624;10.106;2023-12-14T05:12:45;5.43;;;3.50;;
4921;SDS011;16625;53.624;10.106;2023-12-14T05:15:13;7.40;;;3.23;;
4921;SDS011;16625;53.624;10.106;2023-12-14T05:17:40;5.53;;;4.00;;
4921;SDS011;16625;53.624;10.106;2023-12-14T05:20:07;8.30;;;3.73;;
4921;SDS011;16625;53.624;10.106;2023-12-14T05:22:35;7.30;;;3.03;;
4921;SDS011;16625;53.624;10.106;2023-12-14T05:25:02;4.97;;;3.07;;
4921;SDS011;16625;53.624;10.106;2023-12-14T05:27:30;6.10;;;3.30;;
4921;SDS011;16625;53.624;10.106;2023-12-14T05:29:56;5.73;;;3.10;;
4921;SDS011;16625;53.624;10.106;2023-12-14T05:32:25;6.00;;;3.47;;
4921;SDS011;16625;53.624;10.106;2023-12-14T05:34:52;3.57;;;3.07;;
4921;SDS011;16625;53.624;10.106;2023-12-14T05:37:18;8.07;;;3.40;;
4921;SDS011;16625;53.624;10.106;2023-12-14T05:39:45;6.00;;;3.50;;
4921;SDS011;16625;53.624;10.106;2023-12-14T05:42:14;8.97;;;3.60;;
4921;SDS011;16625;53.624;10.106;2023-12-14T05:44:42;4.40;;;3.40;;
4921;SDS011;16625;53.624;10.106;2023-12-14T05:47:10;8.17;;;3.40;;
4921;SDS011;16625;53.624;10.106;2023-12-14T05:49:41;7.90;;;2.93;;
4921;SDS011;16625;53.624;10.106;2023-12-14T05:52:08;5.37;;;3.40;;
4921;SDS011;16625;53.624;10.106;2023-12-14T05:54:35;4.90;;;3.50;;
4921;SDS011;16625;53.624;10.106;2023-12-14T05:57:03;10.30;;;3.60;;
4921;SDS011;16625;53.624;10.106;2023-12-14T05:59:30;8.27;;;4.10;;
4921;SDS011;16625;53.624;10.106;2023-12-14T06:01:57;8.27;;;4.40;;
4921;SDS011;16625;53.624;10.106;2023-12-14T06:04:25;5.27;;;3.80;;
4921;SDS011;16625;53.624;10.106;2023-12-14T06:06:54;6.97;;;4.37;;
4921;SDS011;16625;53.624;10.106;2023-12-14T06:09:21;7.47;;;3.73;;
4921;SDS011;16625;53.624;10.106;2023-12-14T06:11:51;8.00;;;3.90;;
4921;SDS011;16625;53.624;10.106;2023-12-14T06:14:18;9.03;;;3.87;;
4921;SDS011;16625;53.624;10.106;2023-12-14T06:16:45;8.63;;;4.43;;
4921;SDS011;16625;53.624;10.106;2023-12-14T06:19:12;5.87;;;4.00;;
4921;SDS011;16625;53.624;10.106;2023-12-14T06:21:39;5.70;;;4.00;;
4921;SDS011;16625;53.624;10.106;2023-12-14T06:24:08;11.13;;;5.23;;
4921;SDS011;16625;53.624;10.106;2023-12-14T06:26:35;6.67;;;3.90;;
4921;SDS011;16625;53.624;10.106;2023-12-14T06:29:06;11.40;;;4.20;;
4921;SDS011;16625;53.624;10.106;2023-12-14T06:31:33;7.17;;;4.23;;
4921;SDS011;16625;53.624;10.106;2023-12-14T06:34:00;6.10;;;3.73;;
4921;SDS011;16625;53.624;10.106;2023-12-14T06:36:29;8.33;;;4.30;;
4921;SDS011;16625;53.624;10.106;2023-12-14T06:38:56;6.43;;;4.00;;
4921;SDS011;16625;53.624;10.106;2023-12-14T06:41:25;12.00;;;4.50;;
4921;SDS011;16625;53.624;10.106;2023-12-14T06:43:53;12.40;;;4.80;;
4921;SDS011;16625;53.624;10.106;2023-12-14T06:46:21;7.33;;;4.63;;
4921;SDS011;16625;53.624;10.106;2023-12-14T06:48:48;10.73;;;5.50;;
4921;SDS011;16625;53.624;10.106;2023-12-14T06:51:15;7.10;;;4.93;;
4921;SDS011;16625;53.624;10.106;2023-12-14T06:53:42;9.70;;;4.40;;
4921;SDS011;16625;53.624;10.106;2023-12-14T06:56:11;10.03;;;4.50;;
4921;SDS011;16625;53.624;10.106;2023-12-14T06:58:40;9.00;;;5.87;;
4921;SDS011;16625;53.624;10.106;2023-12-14T07:01:11;8.67;;;4.70;;
4921;SDS011;16625;53.624;10.106;2023-12-14T07:03:39;8.40;;;4.90;;
4921;SDS011;16625;53.624;10.106;2023-12-14T07:06:07;10.97;;;5.50;;
4921;SDS011;16625;53.624;10.106;2023-12-14T07:08:34;7.80;;;5.17;;
4921;SDS011;16625;53.624;10.106;2023-12-14T07:11:01;9.10;;;5.00;;
4921;SDS011;16625;53.624;10.106;2023-12-14T07:13:29;7.80;;;4.10;;
4921;SDS011;16625;53.624;10.106;2023-12-14T07:15:59;11.03;;;5.07;;
4921;SDS011;16625;53.624;10.106;2023-12-14T07:18:26;9.67;;;4.93;;
4921;SDS011;16625;53.624;10.106;2023-12-14T07:20:52;7.90;;;4.87;;
4921;SDS011;16625;53.624;10.106;2023-12-14T07:23:19;8.07;;;4.70;;
4921;SDS011;16625;53.624;10.106;2023-12-14T07:25:46;6.70;;;4.50;;
4921;SDS011;16625;53.624;10.106;2023-12-14T07:28:13;8.17;;;5.60;;
4921;SDS011;16625;53.624;10.106;2023-12-14T07:30:40;7.20;;;5.10;;
4921;SDS011;16625;53.624;10.106;2023-12-14T07:33:08;7.93;;;5.10;;
4921;SDS011;16625;53.624;10.106;2023-12-14T07:35:35;11.30;;;4.57;;
4921;SDS011;16625;53.624;10.106;2023-12-14T07:38:02;7.27;;;4.67;;
4921;SDS011;16625;53.624;10.106;2023-12-14T07:40:29;9.00;;;5.07;;
4921;SDS011;16625;53.624;10.106;2023-12-14T07:42:55;7.10;;;5.40;;
4921;SDS011;16625;53.624;10.106;2023-12-14T07:45:22;6.50;;;4.17;;
4921;SDS011;16625;53.624;10.106;2023-12-14T07:47:51;8.73;;;5.10;;
4921;SDS011;16625;53.624;10.106;2023-12-14T07:50:20;9.90;;;5.37;;
4921;SDS011;16625;53.624;10.106;2023-12-14T07:52:47;5.67;;;3.93;;
4921;SDS011;16625;53.624;10.106;2023-12-14T07:55:14;9.27;;;4.83;;
4921;SDS011;16625;53.624;10.106;2023-12-14T07:57:42;9.57;;;4.87;;
4921;SDS011;16625;53.624;10.106;2023-12-14T08:00:09;7.83;;;4.37;;
4921;SDS011;16625;53.624;10.106;2023-12-14T08:02:37;10.57;;;4.87;;
4921;SDS011;16625;53.624;10.106;2023-12-14T08:05:04;11.33;;;5.53;;
4921;SDS011;16625;53.624;10.106;2023-12-14T08:07:33;9.17;;;5.40;;
4921;SDS011;16625;53.624;10.106;2023-12-14T08:10:00;10.53;;;5.10;;
4921;SDS011;16625;53.624;10.106;2023-12-14T08:12:27;7.23;;;5.00;;
4921;SDS011;16625;53.624;10.106;2023-12-14T08:14:54;6.50;;;4.57;;
4921;SDS011;16625;53.624;10.106;2023-12-14T08:17:21;7.20;;;4.60;;
4921;SDS011;16625;53.624;10.106;2023-12-14T08:19:47;12.23;;;4.50;;
4921;SDS011;16625;53.624;10.106;2023-12-14T08:22:14;9.23;;;4.60;;
4921;SDS011;16625;53.624;10.106;2023-12-14T08:24:43;7.13;;;5.50;;
4921;SDS011;16625;53.624;10.106;2023-12-14T08:27:10;10.10;;;4.73;;
4921;SDS011;16625;53.624;10.106;2023-12-14T08:29:36;6.90;;;3.93;;
4921;SDS011;16625;53.624;10.106;2023-12-14T08:32:04;7.23;;;4.30;;
4921;SDS011;16625;53.624;10.106;2023-12-14T08:34:32;12.07;;;5.97;;
4921;SDS011;16625;53.624;10.106;2023-12-14T08:37:01;6.27;;;4.60;;
4921;SDS011;16625;53.624;10.106;2023-12-14T08:39:28;7.30;;;4.83;;
4921;SDS011;16625;53.624;10.106;2023-12-14T08:41:56;14.50;;;5.13;;
4921;SDS011;16625;53.624;10.106;2023-12-14T08:44:23;5.60;;;4.10;;
4921;SDS011;16625;53.624;10.106;2023-12-14T08:46:50;11.40;;;5.43;;
4921;SDS011;16625;53.624;10.106;2023-12-14T08:49:17;6.00;;;4.03;;
4921;SDS011;16625;53.624;10.106;2023-12-14T08:51:44;9.40;;;4.67;;
4921;SDS011;16625;53.624;10.106;2023-12-14T08:54:11;10.50;;;3.33;;
4921;SDS011;16625;53.624;10.106;2023-12-14T08:56:38;7.50;;;5.10;;
4921;SDS011;16625;53.624;10.106;2023-12-14T08:59:06;8.10;;;4.70;;
4921;SDS011;16625;53.624;10.106;2023-12-14T09:01:34;6.70;;;4.50;;
4921;SDS011;16625;53.624;10.106;2023-12-14T09:04:01;8.30;;;4.67;;
4921;SDS011;16625;53.624;10.106;2023-12-14T09:06:29;7.80;;;4.90;;
4921;SDS011;16625;53.624;10.106;2023-12-14T09:08:56;7.53;;;5.17;;
4921;SDS011;16625;53.624;10.106;2023-12-14T09:11:23;9.93;;;4.73;;
4921;SDS011;16625;53.624;10.106;2023-12-14T09:13:50;7.20;;;4.90;;
4921;SDS011;16625;53.624;10.106;2023-12-14T09:16:20;6.83;;;4.23;;
4921;SDS011;16625;53.624;10.106;2023-12-14T09:18:47;4.63;;;3.93;;
4921;SDS011;16625;53.624;10.106;2023-12-14T09:21:14;7.40;;;4.57;;
4921;SDS011;16625;53.624;10.106;2023-12-14T09:23:41;9.73;;;5.27;;
4921;SDS011;16625;53.624;10.106;2023-12-14T09:26:08;7.87;;;4.53;;
4921;SDS011;16625;53.624;10.106;2023-12-14T09:28:36;7.33;;;4.87;;
4921;SDS011;16625;53.624;10.106;2023-12-14T09:31:03;25.83;;;4.93;;
4921;SDS011;16625;53.624;10.106;2023-12-14T09:33:33;14.37;;;5.53;;
4921;SDS011;16625;53.624;10.106;2023-12-14T09:36:00;6.00;;;4.23;;
4921;SDS011;16625;53.624;10.106;2023-12-14T09:38:27;7.50;;;4.60;;
4921;SDS011;16625;53.624;10.106;2023-12-14T09:40:56;6.50;;;4.43;;
4921;SDS011;16625;53.624;10.106;2023-12-14T09:43:39;13.00;;;5.40;;
4921;SDS011;16625;53.624;10.106;2023-12-14T09:46:09;8.10;;;5.80;;
4921;SDS011;16625;53.624;10.106;2023-12-14T09:48:39;8.57;;;5.10;;
4921;SDS011;16625;53.624;10.106;2023-12-14T09:51:07;9.73;;;5.80;;
4921;SDS011;16625;53.624;10.106;2023-12-14T09:53:36;9.40;;;5.77;;
4921;SDS011;16625;53.624;10.106;2023-12-14T09:56:03;17.10;;;5.60;;
4921;SDS011;16625;53.624;10.106;2023-12-14T09:58:31;12.23;;;6.23;;
4921;SDS011;16625;53.624;10.106;2023-12-14T10:00:59;10.90;;;4.70;;
4921;SDS011;16625;53.624;10.106;2023-12-14T10:03:26;14.13;;;5.83;;
4921;SDS011;16625;53.624;10.106;2023-12-14T10:05:56;8.60;;;4.47;;
4921;SDS011;16625;53.624;10.106;2023-12-14T10:08:24;10.20;;;5.00;;
4921;SDS011;16625;53.624;10.106;2023-12-14T10:10:53;7.10;;;4.87;;
4921;SDS011;16625;53.624;10.106;2023-12-14T10:13:22;7.73;;;5.07;;
4921;SDS011;16625;53.624;10.106;2023-12-14T10:16:01;7.40;;;5.37;;
4921;SDS011;16625;53.624;10.106;2023-12-14T10:18:31;10.13;;;4.70;;
4921;SDS011;16625;53.624;10.106;2023-12-14T10:21:02;8.13;;;3.77;;
4921;SDS011;16625;53.624;10.106;2023-12-14T10:23:33;9.40;;;4.83;;
4921;SDS011;16625;53.624;10.106;2023-12-14T10:26:01;4.30;;;3.57;;
4921;SDS011;16625;53.624;10.106;2023-12-14T10:28:28;9.50;;;4.70;;
4921;SDS011;16625;53.624;10.106;2023-12-14T10:30:55;7.60;;;4.40;;
4921;SDS011;16625;53.624;10.106;2023-12-14T10:33:23;6.27;;;5.00;;
4921;SDS011;16625;53.624;10.106;2023-12-14T10:35:51;6.37;;;4.73;;
4921;SDS011;16625;53.624;10.106;2023-12-14T10:38:22;10.00;;;4.20;;
4921;SDS011;16625;53.624;10.106;2023-12-14T10:40:52;9.90;;;4.67;;
4921;SDS011;16625;53.624;10.106;2023-12-14T10:43:21;7.20;;;4.87;;
4921;SDS011;16625;53.624;10.106;2023-12-14T10:45:49;7.97;;;4.70;;
4921;SDS011;16625;53.624;10.106;2023-12-14T10:48:19;5.73;;;4.20;;
4921;SDS011;16625;53.624;10.106;2023-12-14T10:50:47;9.40;;;5.10;;
4921;SDS011;16625;53.624;10.106;2023-12-14T10:53:16;8.77;;;4.80;;
4921;SDS011;16625;53.624;10.106;2023-12-14T10:55:46;7.37;;;4.60;;
4921;SDS011;16625;53.624;10.106;2023-12-14T10:58:16;7.57;;;4.60;;
4921;SDS011;16625;53.624;10.106;2023-12-14T11:00:51;9.53;;;4.90;;
4921;SDS011;16625;53.624;10.106;2023-12-14T11:03:25;5.70;;;3.97;;
4921;SDS011;16625;53.624;10.106;2023-12-14T11:05:53;8.33;;;5.50;;
4921;SDS011;16625;53.624;10.106;2023-12-14T11:08:20;8.77;;;4.73;;
4921;SDS011;16625;53.624;10.106;2023-12-14T11:10:53;6.87;;;4.57;;
4921;SDS011;16625;53.624;10.106;2023-12-14T11:13:26;8.30;;;5.13;;
4921;SDS011;16625;53.624;10.106;2023-12-14T11:15:58;10.73;;;4.47;;
4921;SDS011;16625;53.624;10.106;2023-12-14T11:18:27;9.50;;;4.43;;
4921;SDS011;16625;53.624;10.106;2023-12-14T11:20:54;7.20;;;4.43;;
4921;SDS011;16625;53.624;10.106;2023-12-14T11:23:26;10.63;;;5.20;;
4921;SDS011;16625;53.624;10.106;2023-12-14T11:26:06;5.37;;;4.10;;
4921;SDS011;16625;53.624;10.106;2023-12-14T11:28:37;11.10;;;5.67;;
4921;SDS011;16625;53.624;10.106;2023-12-14T11:31:09;11.70;;;4.87;;
4921;SDS011;16625;53.624;10.106;2023-12-14T11:33:37;6.30;;;4.50;;
4921;SDS011;16625;53.624;10.106;2023-12-14T11:36:05;8.60;;;5.10;;
4921;SDS011;16625;53.624;10.106;2023-12-14T11:38:33;9.50;;;4.90;;
4921;SDS011;16625;53.624;10.106;2023-12-14T11:41:01;13.10;;;5.40;;
4921;SDS011;16625;53.624;10.106;2023-12-14T11:43:29;8.73;;;4.10;;
4921;SDS011;16625;53.624;10.106;2023-12-14T11:46:05;10.70;;;5.00;;
4921;SDS011;16625;53.624;10.106;2023-12-14T11:48:32;9.43;;;4.70;;
4921;SDS011;16625;53.624;10.106;2023-12-14T11:50:59;8.40;;;3.97;;
4921;SDS011;16625;53.624;10.106;2023-12-14T11:53:26;17.43;;;4.90;;
4921;SDS011;16625;53.624;10.106;2023-12-14T11:55:54;9.50;;;5.13;;
4921;SDS011;16625;53.624;10.106;2023-12-14T11:58:21;10.13;;;5.20;;
4921;SDS011;16625;53.624;10.106;2023-12-14T12:00:52;10.90;;;5.47;;
4921;SDS011;16625;53.624;10.106;2023-12-14T12:03:20;7.40;;;5.43;;
4921;SDS011;16625;53.624;10.106;2023-12-14T12:05:47;8.03;;;5.67;;
4921;SDS011;16625;53.624;10.106;2023-12-14T12:08:16;7.97;;;5.43;;
4921;SDS011;16625;53.624;10.106;2023-12-14T12:10:45;13.23;;;5.13;;
4921;SDS011;16625;53.624;10.106;2023-12-14T12:13:13;11.83;;;5.47;;
4921;SDS011;16625;53.624;10.106;2023-12-14T12:15:41;10.90;;;5.20;;
4921;SDS011;16625;53.624;10.106;2023-12-14T12:18:10;6.17;;;3.90;;
4921;SDS011;16625;53.624;10.106;2023-12-14T12:20:38;8.57;;;4.43;;
4921;SDS011;16625;53.624;10.106;2023-12-14T12:23:07;9.90;;;4.93;;
4921;SDS011;16625;53.624;10.106;2023-12-14T12:25:34;7.80;;;5.57;;
4921;SDS011;16625;53.624;10.106;2023-12-14T12:28:02;8.30;;;4.97;;
4921;SDS011;16625;53.624;10.106;2023-12-14T12:30:30;7.90;;;5.30;;
4921;SDS011;16625;53.624;10.106;2023-12-14T12:32:57;9.40;;;4.47;;
4921;SDS011;16625;53.624;10.106;2023-12-14T12:35:25;13.47;;;5.10;;
4921;SDS011;16625;53.624;10.106;2023-12-14T12:37:55;8.77;;;5.10;;
4921;SDS011;16625;53.624;10.106;2023-12-14T12:40:23;10.90;;;6.03;;
4921;SDS011;16625;53.624;10.106;2023-12-14T12:42:52;8.33;;;4.70;;
4921;SDS011;16625;53.624;10.106;2023-12-14T12:45:20;12.73;;;6.33;;
4921;SDS011;16625;53.624;10.106;2023-12-14T12:47:50;8.23;;;6.20;;
4921;SDS011;16625;53.624;10.106;2023-12-14T12:50:18;15.47;;;5.50;;
4921;SDS011;16625;53.624;10.106;2023-12-14T12:52:49;9.63;;;5.53;;
4921;SDS011;16625;53.624;10.106;2023-12-14T12:55:16;10.60;;;5.80;;
4921;SDS011;16625;53.624;10.106;2023-12-14T12:57:43;9.87;;;5.40;;
4921;SDS011;16625;53.624;10.106;2023-12-14T13:00:12;12.13;;;5.30;;
4921;SDS011;16625;53.624;10.106;2023-12-14T13:02:40;10.90;;;5.70;;
4921;SDS011;16625;53.624;10.106;2023-12-14T13:05:10;13.23;;;6.90;;
4921;SDS011;16625;53.624;10.106;2023-12-14T13:07:37;9.70;;;6.10;;
4921;SDS011;16625;53.624;10.106;2023-12-14T13:10:07;10.40;;;6.63;;
4921;SDS011;16625;53.624;10.106;2023-12-14T13:12:35;11.10;;;5.70;;
4921;SDS011;16625;53.624;10.106;2023-12-14T13:15:02;6.83;;;4.67;;
4921;SDS011;16625;53.624;10.106;2023-12-14T13:17:30;10.90;;;5.50;;
4921;SDS011;16625;53.624;10.106;2023-12-14T13:19:57;9.70;;;5.80;;
4921;SDS011;16625;53.624;10.106;2023-12-14T13:22:24;5.10;;;4.50;;
4921;SDS011;16625;53.624;10.106;2023-12-14T13:24:51;11.90;;;6.27;;
4921;SDS011;16625;53.624;10.106;2023-12-14T13:27:19;8.47;;;5.53;;
4921;SDS011;16625;53.624;10.106;2023-12-14T13:29:46;11.10;;;5.43;;
4921;SDS011;16625;53.624;10.106;2023-12-14T13:32:14;9.33;;;5.30;;
4921;SDS011;16625;53.624;10.106;2023-12-14T13:34:41;13.10;;;6.27;;
4921;SDS011;16625;53.624;10.106;2023-12-14T13:37:08;11.03;;;6.20;;
4921;SDS011;16625;53.624;10.106;2023-12-14T13:39:35;8.00;;;5.40;;
4921;SDS011;16625;53.624;10.106;2023-12-14T13:42:03;9.20;;;5.80;;
4921;SDS011;16625;53.624;10.106;2023-12-14T13:44:33;10.13;;;5.90;;
4921;SDS011;16625;53.624;10.106;2023-12-14T13:47:00;7.00;;;4.50;;
4921;SDS011;16625;53.624;10.106;2023-12-14T13:49:27;8.90;;;5.30;;
4921;SDS011;16625;53.624;10.106;2023-12-14T13:51:55;6.77;;;4.00;;
4921;SDS011;16625;53.624;10.106;2023-12-14T13:54:22;12.90;;;6.00;;
4921;SDS011;16625;53.624;10.106;2023-12-14T13:56:50;9.47;;;4.90;;
4921;SDS011;16625;53.624;10.106;2023-12-14T13:59:18;9.07;;;4.80;;
4921;SDS011;16625;53.624;10.106;2023-12-14T14:01:47;8.80;;;4.60;;
4921;SDS011;16625;53.624;10.106;2023-12-14T14:04:16;10.63;;;5.50;;
4921;SDS011;16625;53.624;10.106;2023-12-14T14:06:43;12.33;;;4.57;;
4921;SDS011;16625;53.624;10.106;2023-12-14T14:09:11;7.67;;;5.60;;
4921;SDS011;16625;53.624;10.106;2023-12-14T14:11:39;13.20;;;5.27;;
4921;SDS011;16625;53.624;10.106;2023-12-14T14:14:10;6.40;;;4.63;;
4921;SDS011;16625;53.624;10.106;2023-12-14T14:16:37;7.97;;;5.10;;
4921;SDS011;16625;53.624;10.106;2023-12-14T14:19:06;5.90;;;3.90;;
4921;SDS011;16625;53.624;10.106;2023-12-14T14:21:34;10.03;;;4.50;;
4921;SDS011;16625;53.624;10.106;2023-12-14T14:24:02;7.80;;;4.70;;
4921;SDS011;16625;53.624;10.106;2023-12-14T14:26:30;11.80;;;5.10;;
4921;SDS011;16625;53.624;10.106;2023-12-14T14:28:57;6.27;;;4.50;;
4921;SDS011;16625;53.624;10.106;2023-12-14T14:31:26;12.43;;;4.03;;
4921;SDS011;16625;53.624;10.106;2023-12-14T14:33:57;6.70;;;4.50;;
4921;SDS011;16625;53.624;10.106;2023-12-14T14:36:25;8.23;;;4.90;;
4921;SDS011;16625;53.624;10.106;2023-12-14T14:38:52;12.10;;;4.30;;
4921;SDS011;16625;53.624;10.106;2023-12-14T14:41:21;6.53;;;4.30;;
4921;SDS011;16625;53.624;10.106;2023-12-14T14:43:48;7.63;;;3.87;;
4921;SDS011;16625;53.624;10.106;2023-12-14T14:46:15;9.60;;;4.63;;
4921;SDS011;16625;53.624;10.106;2023-12-14T14:48:43;8.17;;;5.13;;